createdAt,value
2018-04-16T00:01:21.713Z,7.40
2018-04-16T00:03:48.163Z,7.83
2018-04-16T00:06:15.223Z,6.60
2018-04-16T00:08:42.384Z,7.37
2018-04-16T00:11:08.720Z,6.43
2018-04-16T00:13:34.996Z,6.13
2018-04-16T00:16:01.314Z,7.70
2018-04-16T00:18:27.642Z,7.27
2018-04-16T00:20:53.977Z,7.33
2018-04-16T00:23:20.300Z,6.97
2018-04-16T00:25:46.635Z,6.53
2018-04-16T00:28:12.990Z,7.70
2018-04-16T00:30:39.331Z,6.20
2018-04-16T00:33:11.697Z,7.37
2018-04-16T00:35:44.168Z,6.60
2018-04-16T00:38:16.622Z,6.00
2018-04-16T00:40:48.952Z,7.00
2018-04-16T00:43:21.610Z,6.87
2018-04-16T00:45:54.146Z,5.70
2018-04-16T00:48:26.686Z,6.13
2018-04-16T00:50:59.159Z,6.07
2018-04-16T00:53:50.320Z,6.67
2018-04-16T00:56:22.691Z,6.57
2018-04-16T00:58:55.159Z,6.77
2018-04-16T01:04:39.144Z,5.67
2018-04-16T01:07:11.603Z,6.50
2018-04-16T01:09:44.057Z,6.60
2018-04-16T01:12:16.669Z,7.00
2018-04-16T01:14:49.071Z,6.23
2018-04-16T01:17:22.210Z,5.50
2018-04-16T01:19:54.739Z,6.53
2018-04-16T01:22:27.903Z,5.83
2018-04-16T01:25:00.425Z,5.87
2018-04-16T01:27:32.934Z,5.60
2018-04-16T01:30:05.287Z,6.50
2018-04-16T01:32:37.818Z,7.43
2018-04-16T01:35:10.262Z,6.83
2018-04-16T01:37:42.631Z,7.57
2018-04-16T01:40:15.098Z,6.17
2018-04-16T01:42:47.635Z,6.23
2018-04-16T01:45:20.110Z,7.10
2018-04-16T01:47:53.219Z,6.50
2018-04-16T01:50:25.859Z,7.40
2018-04-16T01:52:58.285Z,7.20
2018-04-16T01:55:30.761Z,7.50
2018-04-16T01:58:03.266Z,7.97
2018-04-16T02:00:35.789Z,8.20
2018-04-16T02:03:09.138Z,8.80
2018-04-16T02:05:41.515Z,8.77
2018-04-16T02:08:13.965Z,8.70
2018-04-16T02:10:46.446Z,8.40
2018-04-16T02:13:18.791Z,7.90
2018-04-16T02:15:51.404Z,7.67
2018-04-16T02:18:23.870Z,8.20
2018-04-16T02:20:56.381Z,8.63
2018-04-16T02:23:28.778Z,8.00
2018-04-16T02:26:01.978Z,9.13
2018-04-16T02:28:35.292Z,9.80
2018-04-16T02:31:07.770Z,8.80
2018-04-16T02:33:40.229Z,9.03
2018-04-16T02:36:12.795Z,8.30
2018-04-16T02:38:46.144Z,9.20
2018-04-16T02:41:18.661Z,10.67
2018-04-16T02:43:51.999Z,10.57
2018-04-16T02:46:24.437Z,11.93
2018-04-16T02:48:57.645Z,15.00
2018-04-16T02:51:30.057Z,15.20
2018-04-16T02:54:02.660Z,17.13
2018-04-16T02:59:36.948Z,17.87
2018-04-16T03:02:09.429Z,17.47
2018-04-16T03:04:41.797Z,17.37
2018-04-16T03:07:14.290Z,18.73
2018-04-16T03:09:46.797Z,17.83
2018-04-16T03:12:19.222Z,20.30
2018-04-16T03:14:51.755Z,18.20
2018-04-16T03:17:24.316Z,19.07
2018-04-16T03:19:56.692Z,18.70
2018-04-16T03:22:29.219Z,20.07
2018-04-16T03:25:01.738Z,18.07
2018-04-16T03:27:35.009Z,19.90
2018-04-16T03:30:07.392Z,18.10
2018-04-16T03:32:39.874Z,18.53
2018-04-16T03:35:12.325Z,17.40
2018-04-16T03:37:45.478Z,17.70
2018-04-16T03:40:18.560Z,18.43
2018-04-16T03:42:50.975Z,19.47
2018-04-16T03:45:23.350Z,18.30
2018-04-16T03:47:55.959Z,17.23
2018-04-16T03:50:28.375Z,18.70
2018-04-16T03:53:00.791Z,18.90
2018-04-16T03:55:29.129Z,18.60
2018-04-16T03:57:55.427Z,18.70
2018-04-16T04:00:21.750Z,19.20
2018-04-16T04:02:48.038Z,18.27
2018-04-16T04:05:14.388Z,19.60
2018-04-16T04:07:40.648Z,22.43
2018-04-16T04:10:07.040Z,21.47
2018-04-16T04:12:33.346Z,20.40
2018-04-16T04:14:59.621Z,20.53
2018-04-16T04:17:25.951Z,20.50
2018-04-16T04:19:52.274Z,20.40
2018-04-16T04:22:18.546Z,19.60
2018-04-16T04:25:04.326Z,21.17
2018-04-16T04:27:49.300Z,23.57
2018-04-16T04:30:28.961Z,23.40
2018-04-16T04:32:55.991Z,27.93
2018-04-16T04:35:22.292Z,24.07
2018-04-16T04:37:48.606Z,23.47
2018-04-16T04:40:14.934Z,22.30
2018-04-16T04:42:41.266Z,22.03
2018-04-16T04:45:07.563Z,24.30
2018-04-16T04:47:34.791Z,24.20
2018-04-16T04:50:01.129Z,21.40
2018-04-16T04:52:27.395Z,22.10
2018-04-16T04:54:54.785Z,21.93
2018-04-16T04:57:21.120Z,23.03
2018-04-16T04:59:47.386Z,21.90
2018-04-16T05:02:21.567Z,22.80
2018-04-16T05:04:47.910Z,23.27
2018-04-16T05:07:14.233Z,26.43
2018-04-16T05:09:40.517Z,24.20
2018-04-16T05:12:06.847Z,24.40
2018-04-16T05:14:33.912Z,23.73
2018-04-16T05:17:00.223Z,23.47
2018-04-16T05:19:26.516Z,21.80
2018-04-16T05:21:52.833Z,21.77
2018-04-16T05:24:19.157Z,22.33
2018-04-16T05:26:45.494Z,22.73
2018-04-16T05:29:11.821Z,23.13
2018-04-16T05:31:38.143Z,24.10
2018-04-16T05:34:04.411Z,22.40
2018-04-16T05:36:30.740Z,21.47
2018-04-16T05:38:57.102Z,19.60
2018-04-16T05:41:23.916Z,19.50
2018-04-16T05:43:50.245Z,20.80
2018-04-16T05:46:16.503Z,21.03
2018-04-16T05:48:42.785Z,21.10
2018-04-16T05:51:09.063Z,22.57
2018-04-16T05:53:35.700Z,23.30
2018-04-16T05:56:02.046Z,24.17
2018-04-16T05:58:28.381Z,23.40
2018-04-16T06:00:54.767Z,24.80
2018-04-16T06:03:21.061Z,28.57
2018-04-16T06:05:47.385Z,30.40
2018-04-16T06:08:13.659Z,33.57
2018-04-16T06:10:40.000Z,36.97
2018-04-16T06:13:07.042Z,40.50
2018-04-16T06:15:33.392Z,42.57
2018-04-16T06:17:59.775Z,48.80
2018-04-16T06:20:26.088Z,52.10
2018-04-16T06:22:52.445Z,54.50
2018-04-16T06:25:18.801Z,55.37
2018-04-16T06:27:45.185Z,56.57
2018-04-16T06:30:11.492Z,52.37
2018-04-16T06:32:37.779Z,50.40
2018-04-16T06:35:04.111Z,53.40
2018-04-16T06:37:30.453Z,54.30
2018-04-16T06:39:56.767Z,56.47
2018-04-16T06:42:23.377Z,54.27
2018-04-16T06:44:49.675Z,52.47
2018-04-16T06:47:16.037Z,51.40
2018-04-16T06:49:42.413Z,47.90
2018-04-16T06:52:08.713Z,50.53
2018-04-16T06:54:35.000Z,47.73
2018-04-16T06:57:02.041Z,45.90
2018-04-16T06:59:29.058Z,44.87
2018-04-16T07:01:55.328Z,45.83
2018-04-16T07:04:21.702Z,45.60
2018-04-16T07:06:48.083Z,46.33
2018-04-16T07:09:15.115Z,48.07
2018-04-16T07:11:42.170Z,48.00
2018-04-16T07:14:08.450Z,49.67
2018-04-16T07:16:34.757Z,53.43
2018-04-16T07:19:01.065Z,50.67
2018-04-16T07:21:28.134Z,53.37
2018-04-16T07:23:54.442Z,50.07
2018-04-16T07:26:21.469Z,52.23
2018-04-16T07:28:47.815Z,51.47
2018-04-16T07:31:14.116Z,50.47
2018-04-16T07:33:40.490Z,49.40
2018-04-16T07:36:06.780Z,49.67
2018-04-16T07:38:33.035Z,51.13
2018-04-16T07:40:59.328Z,52.30
2018-04-16T07:43:25.618Z,49.43
2018-04-16T07:45:52.704Z,50.57
2018-04-16T07:48:19.086Z,47.83
2018-04-16T07:50:46.149Z,47.60
2018-04-16T07:53:13.188Z,49.37
2018-04-16T07:55:40.230Z,48.00
2018-04-16T07:58:07.269Z,52.27
2018-04-16T08:00:33.635Z,49.60
2018-04-16T08:02:59.926Z,50.97
2018-04-16T08:05:26.179Z,44.90
2018-04-16T08:07:52.486Z,51.20
2018-04-16T08:10:18.767Z,51.37
2018-04-16T08:12:45.018Z,51.17
2018-04-16T08:15:11.275Z,53.70
2018-04-16T08:17:37.645Z,52.57
2018-04-16T08:20:04.713Z,54.37
2018-04-16T08:22:31.023Z,53.10
2018-04-16T08:24:57.289Z,51.70
2018-04-16T08:27:23.547Z,50.67
2018-04-16T08:29:49.946Z,53.50
2018-04-16T08:32:17.288Z,53.57
2018-04-16T08:34:43.598Z,56.03
2018-04-16T08:37:09.894Z,50.83
2018-04-16T08:39:36.219Z,54.23
2018-04-16T08:42:02.539Z,53.47
2018-04-16T08:44:28.850Z,50.20
2018-04-16T08:46:55.150Z,50.60
2018-04-16T08:49:21.457Z,51.30
2018-04-16T08:51:47.765Z,51.53
2018-04-16T08:54:14.041Z,50.13
2018-04-16T08:56:41.128Z,50.07
2018-04-16T08:59:07.405Z,49.67
2018-04-16T09:01:34.487Z,45.50
2018-04-16T09:04:01.461Z,48.97
2018-04-16T09:06:27.794Z,48.60
2018-04-16T09:08:54.146Z,48.53
2018-04-16T09:11:20.462Z,48.70
2018-04-16T09:13:46.855Z,45.20
2018-04-16T09:16:13.139Z,47.50
2018-04-16T09:18:39.443Z,48.57
2018-04-16T09:21:05.786Z,41.77
2018-04-16T09:23:32.072Z,43.20
2018-04-16T09:25:58.367Z,44.30
2018-04-16T09:28:24.665Z,46.73
2018-04-16T09:30:51.012Z,45.07
2018-04-16T09:33:17.328Z,47.80
2018-04-16T09:35:43.606Z,47.87
2018-04-16T09:38:10.655Z,41.53
2018-04-16T09:40:37.703Z,39.87
2018-04-16T09:43:04.712Z,40.93
2018-04-16T09:45:31.035Z,40.97
2018-04-16T09:47:57.345Z,36.40
2018-04-16T09:50:23.685Z,37.07
2018-04-16T09:52:50.729Z,37.83
2018-04-16T09:55:17.161Z,36.20
2018-04-16T09:57:43.488Z,38.10
2018-04-16T10:00:09.765Z,36.57
2018-04-16T10:02:36.091Z,37.90
2018-04-16T10:05:02.425Z,41.60
2018-04-16T10:07:28.738Z,40.37
2018-04-16T10:09:55.017Z,41.33
2018-04-16T10:12:22.116Z,40.37
2018-04-16T10:14:48.422Z,37.17
2018-04-16T10:17:14.755Z,39.07
2018-04-16T10:19:41.106Z,35.20
2018-04-16T10:22:07.442Z,36.50
2018-04-16T10:24:33.743Z,35.73
2018-04-16T10:27:00.071Z,35.80
2018-04-16T10:29:26.366Z,37.10
2018-04-16T10:31:52.664Z,37.60
2018-04-16T10:34:19.047Z,38.43
2018-04-16T10:36:45.454Z,37.57
2018-04-16T10:39:12.850Z,37.13
2018-04-16T10:41:39.116Z,41.53
2018-04-16T10:44:05.421Z,40.67
2018-04-16T10:46:31.752Z,36.77
2018-04-16T10:48:58.079Z,38.57
2018-04-16T10:51:24.400Z,38.00
2018-04-16T10:53:50.700Z,37.90
2018-04-16T11:02:44.715Z,38.53
2018-04-16T11:05:11.061Z,38.50
2018-04-16T11:07:37.358Z,39.20
2018-04-16T11:10:03.653Z,40.23
2018-04-16T11:12:29.988Z,41.03
2018-04-16T11:14:56.254Z,43.17
2018-04-16T11:17:23.455Z,42.20
2018-04-16T11:19:50.476Z,41.63
2018-04-16T11:22:16.737Z,44.63
2018-04-16T11:27:53.739Z,46.80
2018-04-16T11:48:21.225Z,39.93
2018-04-16T11:50:47.568Z,43.87
2018-04-16T11:53:13.898Z,38.53
2018-04-16T11:55:40.222Z,37.60
2018-04-16T11:58:06.505Z,39.70
2018-04-16T12:00:32.846Z,40.10
2018-04-16T12:02:59.143Z,40.67
2018-04-16T12:05:39.449Z,38.60
2018-04-16T12:08:06.523Z,41.33
2018-04-16T12:10:32.801Z,38.47
2018-04-16T12:12:59.230Z,37.27
2018-04-16T12:15:25.580Z,37.40
2018-04-16T12:17:51.895Z,37.70
2018-04-16T12:20:18.232Z,39.73
2018-04-16T12:22:44.516Z,39.47
2018-04-16T12:25:10.856Z,39.87
2018-04-16T12:27:37.148Z,41.40
2018-04-16T12:30:04.193Z,40.80
2018-04-16T12:32:31.209Z,39.77
2018-04-16T12:35:05.444Z,39.57
2018-04-16T12:37:32.506Z,37.73
2018-04-16T12:39:59.512Z,38.73
2018-04-16T12:42:25.875Z,39.00
2018-04-16T12:44:53.003Z,36.97
2018-04-16T12:47:19.303Z,37.23
2018-04-16T12:49:45.641Z,40.93
2018-04-16T12:52:11.954Z,43.97
2018-04-16T12:54:38.249Z,37.17
2018-04-16T12:57:05.296Z,41.37
2018-04-16T12:59:32.343Z,40.03
2018-04-16T13:01:58.659Z,39.00
2018-04-16T13:04:24.939Z,44.40
2018-04-16T13:06:51.235Z,40.20
2018-04-16T13:09:17.508Z,40.20
2018-04-16T13:11:43.764Z,42.63
2018-04-16T13:14:10.110Z,44.57
2018-04-16T13:16:36.430Z,43.60
2018-04-16T13:19:02.683Z,45.33
2018-04-16T13:21:28.995Z,43.00
2018-04-16T13:23:55.355Z,45.33
2018-04-16T13:26:22.380Z,43.37
2018-04-16T13:28:48.726Z,39.43
2018-04-16T13:31:15.142Z,40.27
2018-04-16T13:33:41.421Z,42.10
2018-04-16T13:36:07.819Z,43.73
2018-04-16T13:38:34.194Z,45.27
2018-04-16T13:41:00.529Z,47.77
2018-04-16T13:43:26.800Z,45.27
2018-04-16T13:45:53.115Z,48.03
2018-04-16T13:48:19.375Z,51.60
2018-04-16T13:50:45.681Z,46.20
2018-04-16T13:53:12.007Z,45.93
2018-04-16T13:55:38.361Z,44.40
2018-04-16T13:58:04.670Z,44.47
2018-04-16T14:00:31.010Z,39.00
2018-04-16T14:02:57.372Z,40.57
2018-04-16T14:05:24.484Z,35.17
2018-04-16T14:07:50.815Z,35.27
2018-04-16T14:10:17.195Z,40.40
2018-04-16T14:12:44.265Z,37.87
2018-04-16T14:15:10.677Z,36.30
2018-04-16T14:17:38.759Z,38.33
2018-04-16T14:20:05.089Z,38.47
2018-04-16T14:22:32.178Z,37.27
2018-04-16T14:24:58.466Z,34.57
2018-04-16T14:27:25.517Z,35.10
2018-04-16T14:29:51.881Z,32.13
2018-04-16T14:32:18.251Z,33.70
2018-04-16T14:34:44.568Z,30.17
2018-04-16T14:37:10.903Z,24.67
2018-04-16T14:39:37.234Z,26.43
2018-04-16T14:42:03.670Z,25.17
2018-04-16T14:44:29.979Z,25.90
2018-04-16T14:46:56.295Z,24.47
2018-04-16T14:49:22.570Z,25.77
2018-04-16T14:51:48.896Z,22.90
2018-04-16T14:54:16.022Z,22.67
2018-04-16T14:56:42.400Z,21.87
2018-04-16T14:59:08.714Z,21.83
2018-04-16T15:01:35.137Z,21.83
2018-04-16T15:04:01.483Z,22.17
2018-04-16T15:06:27.812Z,21.27
2018-04-16T15:08:54.156Z,21.10
2018-04-16T15:11:20.478Z,19.80
2018-04-16T15:13:46.773Z,20.70
2018-04-16T15:16:13.068Z,18.80
2018-04-16T15:18:39.404Z,19.50
2018-04-16T15:21:05.841Z,19.90
2018-04-16T15:23:32.181Z,22.57
2018-04-16T15:25:58.537Z,22.00
2018-04-16T15:28:24.830Z,22.20
2018-04-16T15:30:51.255Z,22.07
2018-04-16T15:33:17.630Z,23.90
2018-04-16T15:35:44.376Z,24.10
2018-04-16T15:38:10.673Z,23.67
2018-04-16T15:40:37.017Z,25.90
2018-04-16T15:43:04.140Z,24.20
2018-04-16T15:45:30.453Z,26.07
2018-04-16T15:47:57.689Z,26.97
2018-04-16T15:50:24.001Z,27.40
2018-04-16T15:52:50.297Z,26.40
2018-04-16T15:55:16.644Z,27.80
2018-04-16T15:57:42.954Z,28.90
2018-04-16T16:00:09.236Z,28.93
2018-04-16T16:02:35.588Z,28.70
2018-04-16T16:05:02.684Z,29.20
2018-04-16T16:07:28.974Z,28.53
2018-04-16T16:09:56.074Z,27.57
2018-04-16T16:12:22.453Z,28.10
2018-04-16T16:14:48.766Z,28.47
2018-04-16T16:17:18.558Z,28.77
2018-04-16T16:19:44.883Z,29.10
2018-04-16T16:22:11.225Z,29.93
2018-04-16T16:24:37.640Z,28.23
2018-04-16T16:27:04.153Z,30.60
2018-04-16T16:29:31.380Z,32.87
2018-04-16T16:31:58.447Z,31.60
2018-04-16T16:34:24.862Z,31.00
2018-04-16T16:36:52.070Z,29.20
2018-04-16T16:39:18.463Z,26.37
2018-04-16T16:41:44.831Z,28.07
2018-04-16T16:44:11.192Z,25.83
2018-04-16T16:46:37.614Z,25.60
2018-04-16T16:49:04.009Z,27.47
2018-04-16T16:51:30.796Z,27.97
2018-04-16T16:53:57.117Z,28.47
2018-04-16T16:56:23.391Z,30.00
2018-04-16T16:58:50.483Z,28.90
2018-04-16T17:01:16.818Z,28.73
2018-04-16T17:03:43.216Z,29.60
2018-04-16T17:06:09.634Z,31.90
2018-04-16T17:08:35.981Z,30.20
2018-04-16T17:11:02.365Z,33.37
2018-04-16T17:13:28.809Z,32.17
2018-04-16T17:15:55.606Z,31.03
2018-04-16T17:18:21.958Z,35.77
2018-04-16T17:20:48.246Z,34.07
2018-04-16T17:23:15.564Z,31.10
2018-04-16T17:25:41.916Z,36.33
2018-04-16T17:28:08.971Z,35.00
2018-04-16T17:30:36.021Z,34.27
2018-04-16T17:33:03.041Z,37.33
2018-04-16T17:35:29.353Z,34.43
2018-04-16T17:37:55.659Z,35.80
2018-04-16T17:40:22.016Z,34.77
2018-04-16T17:42:48.310Z,35.90
2018-04-16T17:45:14.616Z,44.63
2018-04-16T17:47:41.744Z,34.73
2018-04-16T17:50:08.020Z,39.23
2018-04-16T17:52:34.331Z,34.77
2018-04-16T17:55:01.450Z,38.57
2018-04-16T17:57:27.698Z,38.60
2018-04-16T17:59:54.727Z,37.43
2018-04-16T18:02:21.142Z,37.90
2018-04-16T18:04:48.234Z,39.70
2018-04-16T18:07:15.320Z,38.97
2018-04-16T18:09:41.723Z,41.37
2018-04-16T18:12:08.755Z,41.30
2018-04-16T18:14:35.905Z,44.27
2018-04-16T18:17:02.297Z,43.40
2018-04-16T18:19:28.625Z,44.90
2018-04-16T18:21:55.039Z,44.23
2018-04-16T18:24:21.440Z,41.33
2018-04-16T18:26:48.446Z,41.67
2018-04-16T18:29:15.226Z,42.23
2018-04-16T18:31:42.326Z,46.10
2018-04-16T18:34:08.668Z,44.27
2018-04-16T18:36:35.754Z,43.80
2018-04-16T18:39:02.850Z,42.10
2018-04-16T18:41:29.177Z,41.70
2018-04-16T18:43:55.516Z,44.60
2018-04-16T18:46:21.847Z,45.23
2018-04-16T18:48:48.137Z,45.80
2018-04-16T18:51:15.199Z,45.93
2018-04-16T18:53:41.549Z,46.30
2018-04-16T18:56:07.939Z,46.20
2018-04-16T18:58:34.319Z,53.07
2018-04-16T19:01:00.614Z,53.37
2018-04-16T19:03:27.986Z,52.20
2018-04-16T19:05:54.325Z,51.03
2018-04-16T19:08:20.687Z,52.77
2018-04-16T19:10:47.287Z,50.40
2018-04-16T19:13:13.684Z,53.17
2018-04-16T19:15:40.066Z,50.73
2018-04-16T19:18:06.549Z,51.10
2018-04-16T19:20:39.088Z,51.10
2018-04-16T19:23:05.385Z,54.10
2018-04-16T19:25:32.533Z,51.93
2018-04-16T19:28:05.083Z,50.70
2018-04-16T19:30:31.422Z,47.90
2018-04-16T19:33:04.912Z,47.30
2018-04-16T19:35:31.993Z,49.50
2018-04-16T19:37:59.148Z,48.60
2018-04-16T19:40:25.869Z,47.10
2018-04-16T19:42:52.271Z,50.13
2018-04-16T19:45:18.681Z,49.10
2018-04-16T19:47:44.995Z,45.07
2018-04-16T19:50:11.324Z,46.67
2018-04-16T19:52:37.666Z,45.50
2018-04-16T19:55:04.031Z,44.30
2018-04-16T19:57:36.613Z,41.97
2018-04-16T20:00:02.963Z,43.07
2018-04-16T20:02:35.411Z,40.27
2018-04-16T20:05:01.728Z,39.33
2018-04-16T20:07:28.111Z,40.20
2018-04-16T20:09:55.195Z,38.27
2018-04-16T20:12:21.617Z,33.77
2018-04-16T20:14:48.037Z,32.97
2018-04-16T20:17:16.035Z,35.50
2018-04-16T20:19:42.370Z,36.50
2018-04-16T20:22:08.711Z,37.60
2018-04-16T20:24:35.056Z,37.90
2018-04-16T20:27:01.365Z,35.57
2018-04-16T20:29:27.687Z,36.83
2018-04-16T20:31:54.011Z,38.20
2018-04-16T20:34:20.356Z,37.13
2018-04-16T20:36:46.640Z,36.40
2018-04-16T20:39:12.968Z,35.17
2018-04-16T20:41:39.374Z,35.03
2018-04-16T20:44:05.763Z,34.77
2018-04-16T20:46:32.181Z,32.30
2018-04-16T20:48:59.795Z,33.90
2018-04-16T20:51:26.176Z,33.17
2018-04-16T20:53:54.211Z,33.93
2018-04-16T20:56:20.586Z,32.60
2018-04-16T20:58:46.903Z,32.03
2018-04-16T21:01:13.242Z,33.10
2018-04-16T21:03:40.320Z,30.87
2018-04-16T21:06:06.656Z,31.30
2018-04-16T21:08:32.915Z,29.30
2018-04-16T21:10:59.167Z,30.87
2018-04-16T21:13:26.375Z,32.20
2018-04-16T21:15:52.723Z,32.60
2018-04-16T21:18:19.014Z,31.10
2018-04-16T21:20:45.426Z,31.60
2018-04-16T21:23:12.588Z,30.60
2018-04-16T21:25:38.919Z,30.20
2018-04-16T21:28:05.221Z,26.70
2018-04-16T21:30:31.554Z,28.33
2018-04-16T21:32:57.914Z,28.33
2018-04-16T21:35:24.387Z,29.60
2018-04-16T21:37:50.746Z,27.40
2018-04-16T21:40:17.055Z,27.30
2018-04-16T21:42:43.331Z,25.77
2018-04-16T21:45:09.683Z,27.10
2018-04-16T21:47:35.968Z,26.50
2018-04-16T21:50:02.316Z,26.17
2018-04-16T21:52:28.726Z,24.70
2018-04-16T21:54:55.125Z,27.90
2018-04-16T21:57:21.447Z,25.73
2018-04-16T21:59:48.710Z,27.13
2018-04-16T22:02:15.077Z,25.50
2018-04-16T22:04:41.327Z,26.43
2018-04-16T22:07:08.418Z,25.77
2018-04-16T22:09:34.712Z,24.97
2018-04-16T22:12:01.729Z,25.87
2018-04-16T22:14:28.027Z,24.53
2018-04-16T22:16:54.319Z,25.10
2018-04-16T22:19:21.370Z,25.00
2018-04-16T22:21:48.489Z,23.43
2018-04-16T22:24:14.767Z,26.43
2018-04-16T22:26:41.126Z,25.70
2018-04-16T22:29:07.474Z,25.27
2018-04-16T22:31:33.868Z,24.20
2018-04-16T22:34:00.283Z,25.97
2018-04-16T22:36:27.357Z,26.00
2018-04-16T22:38:53.626Z,26.80
2018-04-16T22:41:19.908Z,25.13
2018-04-16T22:43:46.236Z,26.33
2018-04-16T22:46:12.628Z,27.93
2018-04-16T22:48:39.689Z,26.93
2018-04-16T22:51:06.108Z,26.20
2018-04-16T22:53:32.523Z,26.03
2018-04-16T22:55:59.834Z,26.73
2018-04-16T22:58:26.131Z,27.03
2018-04-16T23:00:52.442Z,25.80
2018-04-16T23:03:19.456Z,23.87
2018-04-16T23:05:45.847Z,25.30
2018-04-16T23:08:12.205Z,25.80
2018-04-16T23:10:38.502Z,26.40
2018-04-16T23:13:04.818Z,26.07
2018-04-16T23:15:31.218Z,24.93
2018-04-16T23:17:57.645Z,24.90
2018-04-16T23:20:24.049Z,25.00
2018-04-16T23:22:51.103Z,25.47
2018-04-16T23:25:17.420Z,26.43
2018-04-16T23:27:44.434Z,26.23
2018-04-16T23:30:17.813Z,26.73
2018-04-16T23:32:44.067Z,25.70
2018-04-16T23:35:10.389Z,25.93
2018-04-16T23:37:36.673Z,24.93
2018-04-16T23:40:03.700Z,24.00
2018-04-16T23:42:29.997Z,24.50
2018-04-16T23:44:56.252Z,24.23
2018-04-16T23:47:22.572Z,22.33
2018-04-16T23:49:48.833Z,20.90
2018-04-16T23:52:15.895Z,22.20
2018-04-16T23:54:42.215Z,22.57
2018-04-16T23:57:09.226Z,22.97
2018-04-16T23:59:35.480Z,22.30
